Time;durP1;ratioP1;P1;durP2;ratioP2;P2;SDS_P1;SDS_P2;PMS_P1;PMS_P2;Temp;Humidity;BMP_temperature;BMP_pressure;BME280_temperature;BME280_humidity;BME280_pressure;Samples;Min_cycle;Max_cycle;Signal;HPM_P1;HPM_P2
2023/06/16 00:02:01;;;;;;;6.40;3.50;;;23.40;55.90;;;;;;5071823;28;20028;-54
2023/06/16 00:04:27;;;;;;;6.75;3.00;;;23.40;55.90;;;;;;5071435;28;20403;-54
2023/06/16 00:06:54;;;;;;;9.05;3.60;;;23.40;55.80;;;;;;5071867;28;20479;-53
2023/06/16 00:09:25;;;;;;;7.13;3.28;;;23.40;55.90;;;;;;5071837;28;20044;-55
2023/06/16 00:11:52;;;;;;;3.83;2.80;;;23.40;55.90;;;;;;5071718;28;20487;-52
2023/06/16 00:14:18;;;;;;;7.47;3.20;;;23.40;56.00;;;;;;5071350;28;20024;-56
2023/06/16 00:16:44;;;;;;;8.27;3.13;;;23.40;55.80;;;;;;5071803;28;20411;-51
2023/06/16 00:19:09;;;;;;;6.72;3.25;;;23.40;55.80;;;;;;5071624;28;20315;-56
2023/06/16 00:21:41;;;;;;;8.00;3.28;;;23.40;55.90;;;;;;5071628;28;20098;-56
2023/06/16 00:24:08;;;;;;;6.72;3.33;;;23.40;56.00;;;;;;5071164;28;20484;-51
2023/06/16 00:26:35;;;;;;;7.95;3.50;;;23.40;55.90;;;;;;5071536;28;20070;-53
2023/06/16 00:29:05;;;;;;;8.00;3.42;;;23.40;56.00;;;;;;5071620;28;20075;-56
2023/06/16 00:31:31;;;;;;;;;;;23.30;56.00;;;;;;5072034;28;20115;-56
2023/06/16 00:33:58;;;;;;;6.40;3.40;;;23.30;56.00;;;;;;5071186;28;19909;-53
2023/06/16 00:36:24;;;;;;;5.68;3.25;;;23.30;56.00;;;;;;5071464;28;20456;-53
2023/06/16 00:38:50;;;;;;;7.25;3.17;;;23.30;56.10;;;;;;5071483;28;20028;-54
2023/06/16 00:41:16;;;;;;;8.18;3.58;;;23.40;56.10;;;;;;5071540;28;20119;-54
2023/06/16 00:43:42;;;;;;;4.28;2.90;;;23.30;56.10;;;;;;5071528;28;20025;-52
2023/06/16 00:46:10;;;;;;;7.22;3.20;;;23.30;56.10;;;;;;5071060;28;20032;-48
2023/06/16 00:48:36;;;;;;;6.00;3.20;;;23.30;56.10;;;;;;5070199;28;20021;-55
2023/06/16 00:51:04;;;;;;;7.38;3.13;;;23.30;56.10;;;;;;5071319;28;20025;-54
2023/06/16 00:53:32;;;;;;;6.70;3.33;;;23.30;56.10;;;;;;5071111;28;20029;-48
2023/06/16 00:55:59;;;;;;;;;;;23.30;56.20;;;;;;5071429;28;20116;-48
2023/06/16 00:58:26;;;;;;;7.10;3.40;;;23.30;56.80;;;;;;5071363;28;20353;-49
2023/06/16 01:00:52;;;;;;;6.18;3.03;;;23.30;56.20;;;;;;5071543;28;20036;-48
2023/06/16 01:03:22;;;;;;;6.10;3.13;;;23.30;56.10;;;;;;5053344;28;20043;-51
2023/06/16 01:05:47;;;;;;;6.55;3.20;;;23.30;56.10;;;;;;5070854;28;20032;-48
2023/06/16 01:08:21;;;;;;;5.05;2.78;;;23.30;56.20;;;;;;5069857;28;20024;-56
2023/06/16 01:11:04;;;;;;;6.68;3.50;;;23.40;56.20;;;;;;5071209;28;20514;-54
2023/06/16 01:13:33;;;;;;;5.80;3.50;;;23.30;56.10;;;;;;5071253;28;20170;-51
2023/06/16 01:16:03;;;;;;;4.68;2.88;;;23.30;56.10;;;;;;5070740;28;20526;-51
2023/06/16 01:18:31;;;;;;;10.73;3.75;;;23.30;56.10;;;;;;5069937;28;20033;-51
2023/06/16 01:21:02;;;;;;;6.65;3.22;;;23.30;56.20;;;;;;5071201;28;20058;-48
2023/06/16 01:23:56;;;;;;;5.30;3.10;;;23.30;56.10;;;;;;5071052;28;20053;-49
2023/06/16 01:26:23;;;;;;;4.88;3.33;;;23.30;56.10;;;;;;5069784;28;20049;-55
2023/06/16 01:28:51;;;;;;;6.70;3.47;;;23.40;56.10;;;;;;5053116;28;20024;-51
2023/06/16 01:31:20;;;;;;;11.20;3.20;;;23.30;56.00;;;;;;5055166;28;20073;-55
2023/06/16 01:33:47;;;;;;;7.45;3.25;;;23.30;56.00;;;;;;5073430;28;20111;-54
2023/06/16 01:36:15;;;;;;;6.32;3.10;;;23.40;56.10;;;;;;5074674;28;20104;-49
2023/06/16 01:38:41;;;;;;;9.20;3.13;;;23.40;56.00;;;;;;5074602;28;20053;-49
2023/06/16 01:41:07;;;;;;;5.97;2.92;;;23.30;55.90;;;;;;5056899;28;20525;-53
2023/06/16 01:43:34;;;;;;;6.13;3.25;;;23.30;55.90;;;;;;5074218;28;20032;-54
2023/06/16 01:46:01;;;;;;;9.48;3.58;;;23.40;56.00;;;;;;5074117;28;20086;-51
2023/06/16 01:48:27;;;;;;;7.63;3.58;;;23.30;55.80;;;;;;5074484;28;20381;-55
2023/06/16 01:50:53;;;;;;;9.02;3.22;;;23.30;55.90;;;;;;5074390;28;20024;-49
2023/06/16 01:53:19;;;;;;;8.90;3.47;;;23.40;56.00;;;;;;5074272;28;20032;-50
2023/06/16 01:55:49;;;;;;;5.05;2.80;;;23.30;55.80;;;;;;5073806;28;20063;-48
2023/06/16 01:58:17;;;;;;;7.78;3.35;;;23.30;55.90;;;;;;5056496;28;20108;-54
2023/06/16 02:00:58;;;;;;;6.38;3.17;;;23.40;55.90;;;;;;5056642;28;20106;-53
2023/06/16 02:03:37;;;;;;;5.82;3.20;;;23.30;55.80;;;;;;5056450;28;20033;-55
2023/06/16 02:06:10;;;;;;;7.03;3.10;;;23.30;55.80;;;;;;5073823;28;20020;-54
2023/06/16 02:08:41;;;;;;;6.03;3.17;;;23.30;55.90;;;;;;5056148;28;20376;-54
2023/06/16 02:11:07;;;;;;;6.15;3.40;;;23.30;55.80;;;;;;5074020;28;20020;-52
2023/06/16 02:13:33;;;;;;;6.60;3.20;;;23.30;55.80;;;;;;5074043;28;20116;-55
2023/06/16 02:15:59;;;;;;;8.40;3.20;;;23.30;55.90;;;;;;5073565;28;20036;-55
2023/06/16 02:18:27;;;;;;;6.50;3.00;;;23.30;55.80;;;;;;5055713;28;20029;-51
2023/06/16 02:20:57;;;;;;;5.93;2.88;;;23.30;55.90;;;;;;5073776;28;20025;-56
2023/06/16 02:23:23;;;;;;;9.68;3.28;;;23.30;55.90;;;;;;5073812;28;20031;-53
2023/06/16 02:25:49;;;;;;;7.82;2.97;;;23.30;55.80;;;;;;5054400;28;20036;-55
2023/06/16 02:28:15;;;;;;;6.47;3.35;;;23.30;55.90;;;;;;5073765;28;20032;-52
2023/06/16 02:30:41;;;;;;;6.53;3.42;;;23.30;55.90;;;;;;5072816;28;20028;-56
2023/06/16 02:33:07;;;;;;;9.30;3.60;;;23.30;55.90;;;;;;5055612;28;20027;-53
2023/06/16 02:35:33;;;;;;;6.82;2.90;;;23.30;55.90;;;;;;5055237;28;20549;-55
2023/06/16 02:38:00;;;;;;;11.70;3.38;;;23.30;55.90;;;;;;5073438;28;20024;-51
2023/06/16 02:40:26;;;;;;;8.10;3.25;;;23.30;55.80;;;;;;5073492;28;20036;-51
2023/06/16 02:42:51;;;;;;;5.35;3.10;;;23.30;55.80;;;;;;5055556;28;20025;-52
2023/06/16 02:45:17;;;;;;;8.95;3.30;;;23.30;55.80;;;;;;5073161;28;20021;-53
2023/06/16 02:47:44;;;;;;;7.35;3.42;;;23.30;55.80;;;;;;5055514;28;20021;-51
2023/06/16 02:50:10;;;;;;;7.38;3.20;;;23.30;55.80;;;;;;5055437;28;20024;-50
2023/06/16 02:52:41;;;;;;;6.43;2.85;;;23.30;55.80;;;;;;5055365;28;20113;-55
2023/06/16 02:55:09;;;;;;;6.70;3.00;;;23.30;55.90;;;;;;5054932;28;20045;-52
2023/06/16 02:57:41;;;;;;;8.52;3.40;;;23.30;56.00;;;;;;5055303;28;20037;-48
2023/06/16 03:00:10;;;;;;;5.90;3.45;;;23.30;55.80;;;;;;5044610;22;20051;-56
2023/06/16 03:02:49;;;;;;;5.18;3.20;;;23.30;55.80;;;;;;5018465;28;20062;-53
2023/06/16 03:05:18;;;;;;;9.43;3.20;;;23.30;55.80;;;;;;5018152;28;20520;-54
2023/06/16 03:07:44;;;;;;;5.28;3.28;;;23.30;55.70;;;;;;5002073;28;20040;-52
2023/06/16 03:10:11;;;;;;;5.40;2.67;;;23.40;55.80;;;;;;5014969;28;20398;-52
2023/06/16 03:12:57;;;;;;;6.20;3.58;;;23.30;55.80;;;;;;4933137;28;20040;-58
2023/06/16 03:15:23;;;;;;;3.92;2.72;;;23.30;55.70;;;;;;5014661;28;20402;-50
2023/06/16 03:17:49;;;;;;;5.10;2.80;;;23.30;55.80;;;;;;4932846;29;20621;-54
2023/06/16 03:20:16;;;;;;;3.88;2.78;;;23.30;55.70;;;;;;5014919;28;20028;-57
2023/06/16 03:22:49;;;;;;;4.53;2.78;;;23.30;55.70;;;;;;4931643;29;20032;-54
2023/06/16 03:25:15;;;;;;;5.65;3.10;;;23.30;55.70;;;;;;5014418;28;20086;-57
2023/06/16 03:27:45;;;;;;;;;;;23.30;55.70;;;;;;5015264;28;20105;-55
2023/06/16 03:30:14;;;;;;;7.33;3.20;;;23.30;55.70;;;;;;4932729;29;19911;-50
2023/06/16 03:32:54;;;;;;;6.30;2.90;;;23.30;55.70;;;;;;5014716;28;20350;-54
2023/06/16 03:35:21;;;;;;;6.78;2.97;;;23.30;55.70;;;;;;4932243;29;20035;-52
2023/06/16 03:37:48;;;;;;;8.15;3.30;;;23.30;55.70;;;;;;5014603;28;20403;-56
2023/06/16 03:40:14;;;;;;;6.22;2.90;;;23.30;55.70;;;;;;5014620;28;20097;-56
2023/06/16 03:42:40;;;;;;;5.05;3.20;;;23.30;55.70;;;;;;5014318;28;20513;-52
2023/06/16 03:45:09;;;;;;;6.53;2.75;;;23.30;55.80;;;;;;5014082;28;20027;-52
2023/06/16 03:47:34;;;;;;;6.70;2.80;;;23.30;55.70;;;;;;4932429;29;20028;-52
2023/06/16 03:50:01;;;;;;;7.57;3.35;;;23.30;55.80;;;;;;4998323;28;20036;-51
2023/06/16 03:52:27;;;;;;;5.35;2.92;;;23.30;55.80;;;;;;5014107;28;20032;-50
2023/06/16 03:54:53;;;;;;;6.35;2.78;;;23.30;55.70;;;;;;5013650;28;20093;-53
2023/06/16 03:57:18;;;;;;;5.53;3.33;;;23.30;55.80;;;;;;4932283;29;20367;-54
2023/06/16 03:59:44;;;;;;;6.60;3.13;;;23.30;55.80;;;;;;5013763;28;20515;-52
2023/06/16 04:02:11;;;;;;;5.65;2.97;;;23.30;55.70;;;;;;5014347;28;20028;-53
2023/06/16 04:04:45;;;;;;;9.45;3.35;;;23.30;55.70;;;;;;5013881;28;20059;-54
2023/06/16 04:07:11;;;;;;;4.40;2.90;;;23.30;55.80;;;;;;5030630;28;20024;-54
2023/06/16 04:09:38;;;;;;;5.45;3.17;;;23.30;55.80;;;;;;5033660;28;20020;-54
2023/06/16 04:12:05;;;;;;;6.55;3.05;;;23.30;55.80;;;;;;5033996;28;20084;-54
2023/06/16 04:14:33;;;;;;;4.43;3.00;;;23.30;55.80;;;;;;5033537;28;20027;-50
2023/06/16 04:16:59;;;;;;;8.63;3.38;;;23.30;55.80;;;;;;5034081;28;20209;-51
2023/06/16 04:19:28;;;;;;;5.10;3.05;;;23.30;55.80;;;;;;5033688;28;20406;-52
2023/06/16 04:21:54;;;;;;;7.87;3.30;;;23.30;55.80;;;;;;5033478;28;20089;-54
2023/06/16 04:24:22;;;;;;;7.53;3.03;;;23.30;55.90;;;;;;5033169;28;20536;-50
2023/06/16 04:26:52;;;;;;;6.28;2.97;;;23.30;55.90;;;;;;5033373;28;20460;-52
2023/06/16 04:29:20;;;;;;;4.80;3.03;;;23.30;55.90;;;;;;4951131;28;20023;-49
2023/06/16 04:31:48;;;;;;;6.50;3.05;;;23.30;55.80;;;;;;5033550;28;20030;-52
2023/06/16 04:34:14;;;;;;;6.20;2.97;;;23.30;55.80;;;;;;5033096;28;20042;-50
2023/06/16 04:36:41;;;;;;;4.05;2.90;;;23.30;55.80;;;;;;5033438;28;20061;-51
2023/06/16 04:39:16;;;;;;;10.18;3.20;;;23.30;55.90;;;;;;5033366;28;20056;-51
2023/06/16 04:41:43;;;;;;;7.40;3.20;;;23.30;55.90;;;;;;5033665;28;20035;-49
2023/06/16 04:44:09;;;;;;;4.38;2.85;;;23.30;55.90;;;;;;5032848;28;20674;-51
2023/06/16 04:46:37;;;;;;;5.65;3.40;;;23.30;56.00;;;;;;5033204;28;20402;-55
2023/06/16 04:49:03;;;;;;;6.38;3.10;;;23.30;56.00;;;;;;5016619;28;20524;-52
2023/06/16 04:51:30;;;;;;;7.68;3.78;;;23.30;56.60;;;;;;5033427;28;20050;-51
2023/06/16 04:53:56;;;;;;;6.03;3.53;;;23.30;56.10;;;;;;5032754;28;20064;-54
2023/06/16 04:56:22;;;;;;;7.90;3.30;;;23.30;56.00;;;;;;5033233;28;20035;-56
2023/06/16 04:58:48;;;;;;;5.72;3.45;;;23.20;55.90;;;;;;4950393;28;20042;-50
2023/06/16 05:01:14;;;;;;;4.32;3.35;;;23.30;55.90;;;;;;4950474;29;20043;-53
2023/06/16 05:03:39;;;;;;;5.90;3.15;;;23.30;56.00;;;;;;5033234;28;20030;-52
2023/06/16 05:06:05;;;;;;;7.03;3.20;;;23.30;56.00;;;;;;5034523;28;20028;-50
2023/06/16 05:08:32;;;;;;;6.30;3.00;;;23.30;56.00;;;;;;5036878;28;20414;-51
2023/06/16 05:10:58;;;;;;;8.05;3.15;;;23.30;55.90;;;;;;4953837;29;20024;-51
2023/06/16 05:13:24;;;;;;;5.63;3.42;;;23.30;55.90;;;;;;5036878;28;20035;-54
2023/06/16 05:15:50;;;;;;;5.25;3.58;;;23.30;55.90;;;;;;5036844;28;20069;-53
2023/06/16 05:18:16;;;;;;;7.57;3.20;;;23.30;56.00;;;;;;5036555;28;20065;-56
2023/06/16 05:20:42;;;;;;;5.05;3.08;;;23.30;55.90;;;;;;5036929;28;20494;-52
2023/06/16 05:23:09;;;;;;;4.80;3.05;;;23.30;56.00;;;;;;5036762;28;20051;-50
2023/06/16 05:25:35;;;;;;;6.88;3.05;;;23.30;56.00;;;;;;4953198;29;20027;-56
2023/06/16 05:28:04;;;;;;;5.40;3.40;;;23.20;56.00;;;;;;5036465;28;20058;-53
2023/06/16 05:30:30;;;;;;;5.75;3.22;;;23.20;56.00;;;;;;5036348;28;20032;-53
2023/06/16 05:32:57;;;;;;;4.38;2.72;;;23.20;56.10;;;;;;5036700;28;20368;-54
2023/06/16 05:35:23;;;;;;;5.70;3.17;;;23.20;56.10;;;;;;5036617;28;20486;-57
2023/06/16 05:37:50;;;;;;;6.80;3.10;;;23.20;56.00;;;;;;4952173;29;20114;-57
2023/06/16 05:40:16;;;;;;;4.75;3.17;;;23.20;56.10;;;;;;5036557;28;20098;-57
2023/06/16 05:42:42;;;;;;;8.88;3.10;;;23.20;56.10;;;;;;5036613;28;20081;-57
2023/06/16 05:45:08;;;;;;;5.18;2.90;;;23.20;56.10;;;;;;5036164;28;20038;-56
2023/06/16 05:47:34;;;;;;;4.43;2.97;;;23.20;56.10;;;;;;4953233;29;20059;-57
2023/06/16 05:50:00;;;;;;;7.70;3.28;;;23.20;56.10;;;;;;5036321;28;20035;-55
2023/06/16 05:52:26;;;;;;;8.02;3.33;;;23.20;56.10;;;;;;5036534;28;20032;-58
2023/06/16 05:54:52;;;;;;;8.40;3.28;;;23.20;56.10;;;;;;5035809;28;20037;-56
2023/06/16 05:57:26;;;;;;;5.18;3.33;;;23.20;56.10;;;;;;5036210;28;20035;-57
2023/06/16 05:59:52;;;;;;;5.75;3.20;;;23.20;56.10;;;;;;5036065;28;20043;-56
2023/06/16 06:02:19;;;;;;;4.90;3.30;;;23.20;56.10;;;;;;5036096;28;20517;-53
2023/06/16 06:04:45;;;;;;;7.40;3.20;;;23.20;56.10;;;;;;5035871;28;20111;-57
2023/06/16 06:07:11;;;;;;;5.40;3.05;;;23.20;56.10;;;;;;5036229;28;20110;-57
2023/06/16 06:09:37;;;;;;;6.90;3.50;;;23.20;56.20;;;;;;5036115;28;20023;-51
2023/06/16 06:12:04;;;;;;;4.75;2.92;;;23.20;56.20;;;;;;5036044;28;20028;-54
2023/06/16 06:14:32;;;;;;;5.15;3.25;;;23.20;56.20;;;;;;5035835;28;20466;-57
2023/06/16 06:16:58;;;;;;;4.55;2.92;;;23.20;56.10;;;;;;5035508;28;20036;-57
2023/06/16 06:19:24;;;;;;;5.82;2.85;;;23.20;56.20;;;;;;4953214;28;20575;-52
2023/06/16 06:21:51;;;;;;;8.35;3.13;;;23.20;56.20;;;;;;5035737;28;20028;-57
2023/06/16 06:24:16;;;;;;;5.57;3.00;;;23.20;56.20;;;;;;5035147;28;20372;-57
2023/06/16 06:26:43;;;;;;;4.80;3.15;;;23.20;56.20;;;;;;5019503;28;20031;-55
2023/06/16 06:29:09;;;;;;;3.85;2.60;;;23.20;56.20;;;;;;4952633;28;20023;-57
2023/06/16 06:31:35;;;;;;;5.60;2.85;;;23.20;56.20;;;;;;5035868;28;20034;-56
2023/06/16 06:34:02;;;;;;;5.20;2.90;;;23.20;56.20;;;;;;5035364;28;20038;-52
2023/06/16 06:36:29;;;;;;;4.53;3.00;;;23.20;56.30;;;;;;5035484;28;20290;-55
2023/06/16 06:38:57;;;;;;;8.98;3.03;;;23.20;56.20;;;;;;5035388;28;20565;-52
2023/06/16 06:41:24;;;;;;;7.15;2.90;;;23.20;56.30;;;;;;5035306;28;20113;-55
2023/06/16 06:43:54;;;;;;;5.78;3.15;;;23.20;56.20;;;;;;5035324;28;20031;-51
2023/06/16 06:46:40;;;;;;;4.78;3.00;;;23.20;56.20;;;;;;4952302;29;20042;-54
2023/06/16 06:49:06;;;;;;;5.60;2.55;;;23.20;56.10;;;;;;5035378;28;20504;-53
2023/06/16 06:51:32;;;;;;;5.95;2.88;;;23.20;56.20;;;;;;5035284;28;20027;-51
2023/06/16 06:53:58;;;;;;;6.40;2.67;;;23.20;56.20;;;;;;4951997;29;20031;-50
2023/06/16 06:56:24;;;;;;;4.47;2.90;;;23.20;56.10;;;;;;4952580;29;20042;-51
2023/06/16 06:58:50;;;;;;;6.63;3.03;;;23.20;56.20;;;;;;4952092;28;20067;-55
2023/06/16 07:01:16;;;;;;;8.13;3.00;;;23.30;56.20;;;;;;4952179;29;20126;-52
2023/06/16 07:03:42;;;;;;;5.55;2.97;;;23.30;56.20;;;;;;4953015;29;20065;-54
2023/06/16 07:06:07;;;;;;;6.82;3.10;;;23.20;56.30;;;;;;4951901;29;20073;-56
2023/06/16 07:08:33;;;;;;;4.47;3.08;;;23.20;56.20;;;;;;4952063;28;20421;-56
2023/06/16 07:10:59;;;;;;;5.38;2.90;;;23.20;56.30;;;;;;4952087;29;20556;-56
2023/06/16 07:13:25;;;;;;;3.97;2.70;;;23.20;56.40;;;;;;4952392;29;20070;-56
2023/06/16 07:15:51;;;;;;;8.52;2.88;;;23.20;56.30;;;;;;4951965;29;20020;-56
2023/06/16 07:18:16;;;;;;;5.15;2.70;;;23.20;56.40;;;;;;4951976;28;20487;-57
2023/06/16 07:20:42;;;;;;;4.63;2.75;;;23.20;56.40;;;;;;4951901;29;20080;-56
2023/06/16 07:23:08;;;;;;;5.53;2.80;;;23.20;56.40;;;;;;4951875;29;20024;-56
2023/06/16 07:25:36;;;;;;;4.32;2.70;;;23.20;56.40;;;;;;4951481;29;20067;-56
2023/06/16 07:28:05;;;;;;;4.38;2.80;;;23.20;56.40;;;;;;4950688;28;20399;-56
2023/06/16 07:30:31;;;;;;;4.15;2.70;;;23.20;56.50;;;;;;4951698;28;20510;-56
2023/06/16 07:32:57;;;;;;;6.43;2.83;;;23.20;56.60;;;;;;4951723;29;20030;-58
2023/06/16 07:35:23;;;;;;;4.63;2.72;;;23.20;56.60;;;;;;4951603;29;20403;-59
2023/06/16 07:37:49;;;;;;;3.80;2.60;;;23.10;56.50;;;;;;4951813;29;20418;-56
2023/06/16 07:40:15;;;;;;;4.60;2.72;;;23.20;56.60;;;;;;4951680;28;20027;-56
2023/06/16 07:42:45;;;;;;;5.43;2.75;;;23.20;56.60;;;;;;4951589;29;20081;-56
2023/06/16 07:45:12;;;;;;;5.07;3.08;;;23.20;57.10;;;;;;4951167;29;20442;-59
2023/06/16 07:47:39;;;;;;;4.10;2.70;;;23.20;56.50;;;;;;4951586;29;20422;-57
2023/06/16 07:50:07;;;;;;;7.03;2.80;;;23.20;56.40;;;;;;4951491;28;20023;-57
2023/06/16 07:52:32;;;;;;;4.63;2.65;;;23.20;56.40;;;;;;4951470;29;20043;-56
2023/06/16 07:54:58;;;;;;;3.70;2.70;;;23.20;56.40;;;;;;4951189;29;20039;-57
2023/06/16 07:57:24;;;;;;;6.57;3.05;;;23.20;56.50;;;;;;4951477;29;20054;-57
2023/06/16 07:59:50;;;;;;;4.43;3.17;;;23.20;56.50;;;;;;4951177;28;20088;-56
2023/06/16 08:02:15;;;;;;;8.00;2.97;;;23.20;56.50;;;;;;4951294;29;20030;-57
2023/06/16 08:04:41;;;;;;;6.35;2.63;;;23.20;56.60;;;;;;4950914;29;20035;-57
2023/06/16 08:07:07;;;;;;;5.45;2.85;;;23.20;56.60;;;;;;4951214;29;20027;-57
2023/06/16 08:09:33;;;;;;;6.00;2.90;;;23.20;56.50;;;;;;4951119;28;20101;-56
2023/06/16 08:11:59;;;;;;;6.57;3.17;;;23.20;56.60;;;;;;4951105;29;20030;-53
2023/06/16 08:14:26;;;;;;;4.45;2.97;;;23.20;56.60;;;;;;4950771;29;20529;-56
2023/06/16 08:16:51;;;;;;;4.88;2.80;;;23.20;56.60;;;;;;4951068;29;20034;-57
2023/06/16 08:19:17;;;;;;;5.45;3.00;;;23.20;56.60;;;;;;4950957;28;20027;-56
2023/06/16 08:21:43;;;;;;;5.22;2.70;;;23.20;56.60;;;;;;4927877;29;20566;-57
2023/06/16 08:24:09;;;;;;;6.03;3.00;;;23.20;56.70;;;;;;4921033;29;20153;-57
2023/06/16 08:26:35;;;;;;;5.20;2.92;;;23.20;56.70;;;;;;4923144;29;20066;-56
2023/06/16 08:29:03;;;;;;;7.35;3.38;;;23.20;56.60;;;;;;4920583;28;20141;-58
2023/06/16 08:31:28;;;;;;;10.98;2.92;;;23.20;57.10;;;;;;4924806;29;20130;-57
2023/06/16 08:33:55;;;;;;;10.07;3.22;;;23.30;57.30;;;;;;4926299;28;20156;-61
2023/06/16 08:36:23;;;;;;;23.30;4.00;;;23.20;57.20;;;;;;4942328;28;20031;-59
2023/06/16 08:38:49;;;;;;;29.90;4.97;;;23.20;58.00;;;;;;4987893;28;20093;-59
2023/06/16 08:41:17;;;;;;;10.95;3.92;;;23.20;58.70;;;;;;4927201;29;20079;-58
2023/06/16 08:43:47;;;;;;;18.88;4.15;;;23.20;58.60;;;;;;4926439;29;20028;-60
2023/06/16 08:46:13;;;;;;;32.20;4.45;;;23.20;58.40;;;;;;4923925;29;20024;-58
2023/06/16 08:48:39;;;;;;;18.88;4.55;;;23.20;58.60;;;;;;4927084;29;20109;-61
2023/06/16 08:51:09;;;;;;;16.75;4.47;;;23.20;58.80;;;;;;4938050;28;20712;-60
2023/06/16 08:53:36;;;;;;;16.90;5.10;;;23.30;59.40;;;;;;4923650;29;20028;-55
2023/06/16 08:56:05;;;;;;;13.23;4.45;;;23.20;59.70;;;;;;4927016;28;20028;-57
2023/06/16 08:58:33;;;;;;;12.70;4.53;;;23.20;58.80;;;;;;4926964;29;20019;-54
2023/06/16 09:01:02;;;;;;;11.65;4.47;;;23.20;59.30;;;;;;5073019;23;20045;-51
2023/06/16 09:03:32;;;;;;;11.18;4.72;;;23.20;59.70;;;;;;5064628;28;20510;-51
2023/06/16 09:06:01;;;;;;;11.38;4.68;;;23.10;61.10;;;;;;5065573;28;20032;-53
2023/06/16 09:08:28;;;;;;;;;;;23.10;61.80;;;;;;5071479;28;20033;-55
2023/06/16 09:10:56;;;;;;;9.02;4.22;;;23.10;61.20;;;;;;5066346;28;19920;-51
2023/06/16 09:13:24;;;;;;;10.68;4.20;;;23.10;61.10;;;;;;5046097;28;20930;-49
2023/06/16 09:15:50;;;;;;;8.15;3.90;;;23.20;61.20;;;;;;5046063;28;20037;-53
2023/06/16 09:18:16;;;;;;;7.72;3.72;;;23.20;61.30;;;;;;5046168;28;20184;-55
2023/06/16 09:20:51;;;;;;;7.38;3.30;;;23.20;61.10;;;;;;5046823;28;20107;-53
2023/06/16 09:23:27;;;;;;;9.07;3.80;;;23.20;61.00;;;;;;5053869;28;20040;-51
2023/06/16 09:25:54;;;;;;;12.73;3.65;;;23.20;61.10;;;;;;5043944;28;20428;-49
2023/06/16 09:28:32;;;;;;;12.18;3.72;;;23.20;60.70;;;;;;5046045;28;20040;-51
2023/06/16 09:31:03;;;;;;;9.18;3.53;;;23.20;60.80;;;;;;5045807;28;20064;-52
2023/06/16 09:33:30;;;;;;;13.88;3.47;;;23.20;60.60;;;;;;5046282;28;20033;-51
2023/06/16 09:35:57;;;;;;;7.10;3.05;;;23.30;60.50;;;;;;5045587;28;20064;-49
2023/06/16 09:38:23;;;;;;;7.20;2.95;;;23.30;60.30;;;;;;5046286;28;20045;-50
2023/06/16 09:40:49;;;;;;;6.40;3.17;;;23.30;60.30;;;;;;5042148;28;20029;-51
2023/06/16 09:43:15;;;;;;;8.20;3.13;;;23.30;60.10;;;;;;5048271;28;20037;-51
2023/06/16 09:45:44;;;;;;;11.57;3.30;;;23.30;59.90;;;;;;5046399;28;20446;-54
2023/06/16 09:48:11;;;;;;;6.05;2.75;;;23.30;59.80;;;;;;5046737;28;20326;-53
2023/06/16 09:50:40;;;;;;;8.02;3.47;;;23.30;59.80;;;;;;5044371;28;20021;-51
2023/06/16 09:53:09;;;;;;;8.73;3.50;;;23.30;60.40;;;;;;5055660;28;20029;-50
2023/06/16 09:55:40;;;;;;;10.40;4.10;;;23.30;59.70;;;;;;5047360;28;20035;-51
2023/06/16 09:58:05;;;;;;;6.93;3.15;;;23.30;59.80;;;;;;5050293;28;20064;-50
2023/06/16 10:00:32;;;;;;;8.40;2.92;;;23.40;59.70;;;;;;5050877;28;20029;-52
2023/06/16 10:03:00;;;;;;;6.07;3.05;;;23.40;59.70;;;;;;5051329;28;20040;-49
2023/06/16 10:05:31;;;;;;;9.43;2.85;;;23.40;59.50;;;;;;5050949;28;20032;-54
2023/06/16 10:07:58;;;;;;;9.32;3.30;;;23.40;59.70;;;;;;5057766;28;20056;-51
2023/06/16 10:10:29;;;;;;;5.65;3.17;;;23.30;60.70;;;;;;5051128;28;20025;-48
2023/06/16 10:12:56;;;;;;;6.70;3.25;;;23.30;60.20;;;;;;5051672;28;20079;-50
2023/06/16 10:15:27;;;;;;;8.55;3.58;;;23.30;61.20;;;;;;5051457;28;20063;-50
2023/06/16 10:18:03;;;;;;;10.23;3.60;;;23.20;60.70;;;;;;5051239;28;20043;-55
2023/06/16 10:20:32;;;;;;;6.55;3.60;;;23.20;60.70;;;;;;5051338;28;20029;-52
2023/06/16 10:23:02;;;;;;;7.18;3.80;;;23.20;61.40;;;;;;5051517;28;20108;-51
2023/06/16 10:25:29;;;;;;;8.40;4.28;;;23.20;60.80;;;;;;5050912;28;20032;-52
2023/06/16 10:27:55;;;;;;;10.57;3.80;;;23.10;61.20;;;;;;5051414;28;20039;-56
2023/06/16 10:30:23;;;;;;;10.60;4.10;;;23.10;61.40;;;;;;5050818;28;20021;-52
2023/06/16 10:32:50;;;;;;;11.65;4.20;;;23.10;61.40;;;;;;5051220;28;20104;-53
2023/06/16 10:35:17;;;;;;;11.77;4.07;;;23.10;61.30;;;;;;5050834;28;20024;-51
2023/06/16 10:37:58;;;;;;;8.30;3.78;;;23.10;61.10;;;;;;5051119;28;20037;-51
2023/06/16 10:40:25;;;;;;;6.40;3.58;;;23.20;60.90;;;;;;5050973;28;20056;-52
2023/06/16 10:42:57;;;;;;;9.45;3.80;;;23.20;60.80;;;;;;5051075;28;20540;-50
2023/06/16 10:45:28;;;;;;;8.15;3.40;;;23.20;60.70;;;;;;5050707;28;20044;-54
2023/06/16 10:47:55;;;;;;;7.43;4.05;;;23.20;60.70;;;;;;5051160;28;20055;-52
2023/06/16 10:50:39;;;;;;;8.52;3.80;;;23.20;60.70;;;;;;5050894;28;20029;-56
2023/06/16 10:53:19;;;;;;;9.27;4.32;;;23.20;60.70;;;;;;5050860;28;20032;-54
2023/06/16 10:55:46;;;;;;;10.43;3.40;;;23.20;60.40;;;;;;5054131;28;20025;-55
2023/06/16 10:58:19;;;;;;;13.20;4.10;;;23.20;60.30;;;;;;5051082;28;20449;-54
2023/06/16 11:01:20;;;;;;;8.73;3.25;;;23.20;60.10;;;;;;5050504;28;20564;-50
2023/06/16 11:03:46;;;;;;;7.55;3.47;;;23.30;60.00;;;;;;5050587;28;20040;-51
2023/06/16 11:06:12;;;;;;;7.70;3.38;;;23.30;60.00;;;;;;5042438;28;20100;-53
2023/06/16 11:08:55;;;;;;;10.02;3.60;;;23.30;59.80;;;;;;5050800;28;20435;-51
2023/06/16 11:11:22;;;;;;;7.68;3.67;;;23.30;60.00;;;;;;5043640;28;20562;-51
2023/06/16 11:13:48;;;;;;;6.40;3.42;;;23.30;59.90;;;;;;5050409;28;20531;-48
2023/06/16 11:16:14;;;;;;;6.88;3.83;;;23.30;60.50;;;;;;5050575;28;20052;-53
2023/06/16 11:18:40;;;;;;;12.00;3.78;;;23.30;59.80;;;;;;5050348;28;20029;-51
2023/06/16 11:21:07;;;;;;;11.05;3.90;;;23.30;59.70;;;;;;5057299;28;20025;-53
2023/06/16 11:23:34;;;;;;;6.90;3.63;;;23.30;59.70;;;;;;5050347;28;20044;-50
2023/06/16 11:26:09;;;;;;;7.05;3.55;;;23.30;59.70;;;;;;5049785;28;20028;-53
2023/06/16 11:28:40;;;;;;;10.32;4.13;;;23.30;60.00;;;;;;5050216;28;20075;-49
2023/06/16 11:31:10;;;;;;;11.55;3.83;;;23.30;59.70;;;;;;5050121;28;20447;-54
2023/06/16 11:33:37;;;;;;;14.55;4.60;;;23.40;60.20;;;;;;5049708;28;20036;-55
2023/06/16 11:36:23;;;;;;;11.73;4.53;;;23.40;59.90;;;;;;5049633;28;20032;-54
2023/06/16 11:38:51;;;;;;;21.70;6.18;;;23.40;59.90;;;;;;5050093;28;20102;-51
2023/06/16 11:41:20;;;;;;;19.00;5.90;;;23.40;59.70;;;;;;5049870;28;20068;-51
2023/06/16 11:43:47;;;;;;;;;;;23.40;59.70;;;;;;5049913;28;20128;-49
2023/06/16 11:46:15;;;;;;;22.15;5.90;;;23.40;59.90;;;;;;5049637;28;20406;-50
2023/06/16 11:48:41;;;;;;;18.08;6.30;;;23.50;59.50;;;;;;5049987;28;20080;-48
2023/06/16 11:51:07;;;;;;;17.35;5.97;;;23.50;60.10;;;;;;5049685;28;20029;-50
2023/06/16 11:53:33;;;;;;;17.58;5.75;;;23.50;59.70;;;;;;5049494;28;20051;-53
2023/06/16 11:56:00;;;;;;;20.45;6.90;;;23.50;59.60;;;;;;5049725;28;20104;-52
2023/06/16 11:58:29;;;;;;;25.02;7.60;;;23.50;59.30;;;;;;5049517;28;20025;-50
2023/06/16 12:01:01;;;;;;;21.63;6.63;;;23.50;59.60;;;;;;5048352;28;20082;-51
2023/06/16 12:03:38;;;;;;;19.17;6.22;;;23.40;59.60;;;;;;5049645;28;20021;-50
2023/06/16 12:06:06;;;;;;;26.55;7.45;;;23.50;59.20;;;;;;5049303;28;20033;-51
2023/06/16 12:08:51;;;;;;;18.73;6.63;;;23.40;59.20;;;;;;5049553;28;20076;-56
2023/06/16 12:11:32;;;;;;;20.20;6.72;;;23.40;59.20;;;;;;5042110;28;20025;-51
2023/06/16 12:14:00;;;;;;;23.67;7.28;;;23.40;59.20;;;;;;5048666;28;20055;-52
2023/06/16 12:16:27;;;;;;;20.15;6.70;;;23.40;59.10;;;;;;5049403;28;20025;-54
2023/06/16 12:18:53;;;;;;;23.35;6.05;;;23.40;59.20;;;;;;5049371;28;20488;-55
2023/06/16 12:21:23;;;;;;;20.85;6.18;;;23.40;59.10;;;;;;5049308;28;20040;-51
2023/06/16 12:23:54;;;;;;;15.50;5.57;;;23.40;59.20;;;;;;5049113;28;20127;-56
2023/06/16 12:26:28;;;;;;;23.42;6.82;;;23.40;59.10;;;;;;5049375;28;20288;-54
2023/06/16 12:28:55;;;;;;;20.65;6.38;;;23.40;59.20;;;;;;5056572;28;20063;-50
2023/06/16 12:31:22;;;;;;;20.23;6.20;;;23.40;59.10;;;;;;5049221;28;20029;-51
2023/06/16 12:33:52;;;;;;;20.02;6.47;;;23.40;59.10;;;;;;5048902;28;20028;-50
2023/06/16 12:36:18;;;;;;;22.35;6.55;;;23.40;59.30;;;;;;5049222;28;20077;-52
2023/06/16 12:38:44;;;;;;;22.52;7.07;;;23.40;59.00;;;;;;5048972;28;20399;-50
2023/06/16 12:41:14;;;;;;;21.13;7.25;;;23.40;59.00;;;;;;5049053;28;20021;-50
2023/06/16 12:43:51;;;;;;;20.08;6.45;;;23.40;59.00;;;;;;5049114;28;20578;-52
2023/06/16 12:46:17;;;;;;;25.73;7.30;;;23.40;59.10;;;;;;5041320;28;20045;-53
2023/06/16 12:48:43;;;;;;;22.20;7.03;;;23.40;59.00;;;;;;5048879;28;20033;-55
2023/06/16 12:51:10;;;;;;;24.17;7.13;;;23.40;59.00;;;;;;5048841;28;20032;-49